sensor_id;sensor_type;location;lat;lon;timestamp;noise_LAeq;noise_LA_min;noise_LA_max;noise_LA01;noise_LA95
43385;Laerm;28988;48.042;7.584;2023-03-23T00:02:10;90.96;-31.80;101.77;;
43385;Laerm;28988;48.042;7.584;2023-03-23T00:04:35;91.83;-46.85;101.80;;
43385;Laerm;28988;48.042;7.584;2023-03-23T00:07:00;92.12;-32.27;104.31;;
43385;Laerm;28988;48.042;7.584;2023-03-23T00:09:27;92.32;-39.68;103.54;;
43385;Laerm;28988;48.042;7.584;2023-03-23T00:11:53;92.50;-45.28;103.85;;
43385;Laerm;28988;48.042;7.584;2023-03-23T00:14:22;92.66;-34.44;103.00;;
43385;Laerm;28988;48.042;7.584;2023-03-23T00:16:48;92.59;-36.85;102.66;;
43385;Laerm;28988;48.042;7.584;2023-03-23T00:19:14;92.51;-39.09;104.39;;
43385;Laerm;28988;48.042;7.584;2023-03-23T00:21:40;92.32;-33.56;103.86;;
43385;Laerm;28988;48.042;7.584;2023-03-23T00:24:07;92.03;-33.97;102.43;;
43385;Laerm;28988;48.042;7.584;2023-03-23T00:26:33;91.69;-49.92;103.92;;
43385;Laerm;28988;48.042;7.584;2023-03-23T00:28:59;91.40;-21.82;102.18;;
43385;Laerm;28988;48.042;7.584;2023-03-23T00:31:25;90.99;-45.35;102.54;;
43385;Laerm;28988;48.042;7.584;2023-03-23T00:33:56;90.46;-34.25;101.66;;
43385;Laerm;28988;48.042;7.584;2023-03-23T00:36:21;89.76;-22.61;100.75;;
43385;Laerm;28988;48.042;7.584;2023-03-23T00:38:48;88.96;-23.47;102.23;;
43385;Laerm;28988;48.042;7.584;2023-03-23T00:41:13;88.22;-38.71;101.07;;
43385;Laerm;28988;48.042;7.584;2023-03-23T00:43:40;87.46;-30.51;99.95;;
43385;Laerm;28988;48.042;7.584;2023-03-23T00:46:05;86.87;-20.29;99.30;;
43385;Laerm;28988;48.042;7.584;2023-03-23T00:48:34;86.46;-49.51;99.48;;
43385;Laerm;28988;48.042;7.584;2023-03-23T00:51:00;86.09;-41.26;96.84;;
43385;Laerm;28988;48.042;7.584;2023-03-23T00:53:26;85.80;-27.46;96.73;;
43385;Laerm;28988;48.042;7.584;2023-03-23T00:55:51;85.56;-38.42;97.15;;
43385;Laerm;28988;48.042;7.584;2023-03-23T00:58:16;85.49;-27.40;96.93;;
43385;Laerm;28988;48.042;7.584;2023-03-23T01:00:41;85.35;-39.80;96.72;;
43385;Laerm;28988;48.042;7.584;2023-03-23T01:03:07;85.24;-47.13;96.51;;
43385;Laerm;28988;48.042;7.584;2023-03-23T01:05:34;85.07;-38.65;96.18;;
43385;Laerm;28988;48.042;7.584;2023-03-23T01:07:59;85.02;-38.65;96.68;;
43385;Laerm;28988;48.042;7.584;2023-03-23T01:10:24;85.01;-26.64;97.61;;
43385;Laerm;28988;48.042;7.584;2023-03-23T01:12:51;84.94;-39.92;96.09;;
43385;Laerm;28988;48.042;7.584;2023-03-23T01:15:17;84.87;-43.63;96.01;;
43385;Laerm;28988;48.042;7.584;2023-03-23T01:17:43;84.87;-38.65;96.46;;
43385;Laerm;28988;48.042;7.584;2023-03-23T01:20:08;84.90;-41.94;96.92;;
43385;Laerm;28988;48.042;7.584;2023-03-23T01:22:35;84.88;-37.14;97.31;;
43385;Laerm;28988;48.042;7.584;2023-03-23T01:25:00;84.85;-43.18;95.87;;
43385;Laerm;28988;48.042;7.584;2023-03-23T01:27:25;84.84;-39.66;96.42;;
43385;Laerm;28988;48.042;7.584;2023-03-23T01:29:50;84.89;-35.48;97.07;;
43385;Laerm;28988;48.042;7.584;2023-03-23T01:32:16;84.84;-41.01;95.93;;
43385;Laerm;28988;48.042;7.584;2023-03-23T01:34:41;84.76;-46.75;95.25;;
43385;Laerm;28988;48.042;7.584;2023-03-23T01:37:06;84.73;-37.78;96.84;;
43385;Laerm;28988;48.042;7.584;2023-03-23T01:39:32;84.66;-39.28;96.22;;
43385;Laerm;28988;48.042;7.584;2023-03-23T01:41:57;84.66;-51.03;95.91;;
43385;Laerm;28988;48.042;7.584;2023-03-23T01:46:47;84.61;-24.23;96.03;;
43385;Laerm;28988;48.042;7.584;2023-03-23T01:49:20;84.60;-27.36;96.73;;
43385;Laerm;28988;48.042;7.584;2023-03-23T01:51:47;84.57;-38.42;96.44;;
43385;Laerm;28988;48.042;7.584;2023-03-23T01:54:13;84.55;-38.80;96.21;;
43385;Laerm;28988;48.042;7.584;2023-03-23T01:56:40;84.56;-23.73;96.34;;
43385;Laerm;28988;48.042;7.584;2023-03-23T01:59:07;84.50;-57.68;96.26;;
43385;Laerm;28988;48.042;7.584;2023-03-23T02:01:33;84.50;-49.17;95.88;;
43385;Laerm;28988;48.042;7.584;2023-03-23T02:04:03;84.49;-31.18;96.47;;
43385;Laerm;28988;48.042;7.584;2023-03-23T02:06:29;84.53;-49.54;96.16;;
43385;Laerm;28988;48.042;7.584;2023-03-23T02:08:54;84.53;-47.13;96.15;;
43385;Laerm;28988;48.042;7.584;2023-03-23T02:11:21;84.55;-37.85;96.06;;
43385;Laerm;28988;48.042;7.584;2023-03-23T02:13:47;84.55;-47.13;95.88;;
43385;Laerm;28988;48.042;7.584;2023-03-23T02:16:21;84.58;-38.24;96.18;;
43385;Laerm;28988;48.042;7.584;2023-03-23T02:23:53;84.58;-38.90;96.71;;
43385;Laerm;28988;48.042;7.584;2023-03-23T02:26:27;84.55;-45.97;96.26;;
43385;Laerm;28988;48.042;7.584;2023-03-23T02:34:16;84.51;-57.68;96.31;;
43385;Laerm;28988;48.042;7.584;2023-03-23T02:36:55;84.54;-47.65;96.09;;
43385;Laerm;28988;48.042;7.584;2023-03-23T02:39:33;84.52;-57.68;95.59;;
43385;Laerm;28988;48.042;7.584;2023-03-23T02:42:03;84.48;-57.68;96.09;;
43385;Laerm;28988;48.042;7.584;2023-03-23T02:44:29;84.52;-27.29;96.45;;
43385;Laerm;28988;48.042;7.584;2023-03-23T02:46:56;84.49;-66.80;96.21;;
43385;Laerm;28988;48.042;7.584;2023-03-23T02:49:22;84.51;-57.68;96.01;;
43385;Laerm;28988;48.042;7.584;2023-03-23T02:51:49;84.46;-39.78;95.37;;
43385;Laerm;28988;48.042;7.584;2023-03-23T02:54:15;84.47;-34.39;98.10;;
43385;Laerm;28988;48.042;7.584;2023-03-23T02:56:41;84.50;-42.25;95.64;;
43385;Laerm;28988;48.042;7.584;2023-03-23T02:59:08;84.49;-58.31;96.17;;
43385;Laerm;28988;48.042;7.584;2023-03-23T03:03:59;84.47;-66.28;96.39;;
43385;Laerm;28988;48.042;7.584;2023-03-23T03:08:55;84.57;-38.65;96.72;;
43385;Laerm;28988;48.042;7.584;2023-03-23T03:11:22;84.56;-57.68;95.54;;
43385;Laerm;28988;48.042;7.584;2023-03-23T03:13:52;84.56;-68.18;96.28;;
43385;Laerm;28988;48.042;7.584;2023-03-23T03:19:02;84.55;-72.00;96.11;;
43385;Laerm;28988;48.042;7.584;2023-03-23T03:21:29;84.53;-33.31;96.16;;
43385;Laerm;28988;48.042;7.584;2023-03-23T03:23:55;84.52;-48.19;96.12;;
43385;Laerm;28988;48.042;7.584;2023-03-23T03:26:24;84.50;-34.16;96.18;;
43385;Laerm;28988;48.042;7.584;2023-03-23T03:28:51;84.56;-39.66;96.08;;
43385;Laerm;28988;48.042;7.584;2023-03-23T03:31:18;84.53;-30.31;95.70;;
43385;Laerm;28988;48.042;7.584;2023-03-23T03:33:44;84.52;-25.70;95.82;;
43385;Laerm;28988;48.042;7.584;2023-03-23T03:36:14;84.56;-42.47;97.54;;
43385;Laerm;28988;48.042;7.584;2023-03-23T03:38:40;84.53;-39.78;97.48;;
43385;Laerm;28988;48.042;7.584;2023-03-23T03:41:08;84.55;-39.78;95.78;;
43385;Laerm;28988;48.042;7.584;2023-03-23T03:43:34;84.53;-41.54;96.47;;
43385;Laerm;28988;48.042;7.584;2023-03-23T03:46:00;84.52;-61.33;96.15;;
43385;Laerm;28988;48.042;7.584;2023-03-23T03:48:25;84.49;-39.78;95.68;;
43385;Laerm;28988;48.042;7.584;2023-03-23T03:50:50;84.45;-37.77;95.78;;
43385;Laerm;28988;48.042;7.584;2023-03-23T03:53:17;84.51;-57.68;95.39;;
43385;Laerm;28988;48.042;7.584;2023-03-23T03:55:42;84.50;-41.67;96.10;;
43385;Laerm;28988;48.042;7.584;2023-03-23T03:58:13;84.48;-57.68;95.54;;
43385;Laerm;28988;48.042;7.584;2023-03-23T04:00:38;84.46;-25.65;96.99;;
43385;Laerm;28988;48.042;7.584;2023-03-23T04:03:04;84.44;-30.89;96.23;;
43385;Laerm;28988;48.042;7.584;2023-03-23T04:05:29;84.43;-23.73;96.07;;
43385;Laerm;28988;48.042;7.584;2023-03-23T04:07:54;84.42;-34.50;95.65;;
43385;Laerm;28988;48.042;7.584;2023-03-23T04:10:26;84.38;-57.68;96.25;;
43385;Laerm;28988;48.042;7.584;2023-03-23T04:12:51;84.39;-31.18;96.21;;
43385;Laerm;28988;48.042;7.584;2023-03-23T04:15:16;84.42;-31.18;96.11;;
43385;Laerm;28988;48.042;7.584;2023-03-23T04:17:41;84.42;-42.45;95.86;;
43385;Laerm;28988;48.042;7.584;2023-03-23T04:20:08;84.42;-34.16;95.56;;
43385;Laerm;28988;48.042;7.584;2023-03-23T04:22:42;84.37;-57.68;95.89;;
43385;Laerm;28988;48.042;7.584;2023-03-23T04:25:09;84.40;-39.78;95.54;;
43385;Laerm;28988;48.042;7.584;2023-03-23T04:27:36;84.40;-39.78;95.59;;
43385;Laerm;28988;48.042;7.584;2023-03-23T04:30:01;84.39;-34.16;95.83;;
43385;Laerm;28988;48.042;7.584;2023-03-23T04:32:27;84.37;-33.10;95.46;;
43385;Laerm;28988;48.042;7.584;2023-03-23T04:34:57;84.36;-57.68;95.64;;
43385;Laerm;28988;48.042;7.584;2023-03-23T04:37:23;84.39;-57.68;95.58;;
43385;Laerm;28988;48.042;7.584;2023-03-23T04:39:50;84.37;-28.18;96.29;;
43385;Laerm;28988;48.042;7.584;2023-03-23T04:42:24;84.38;-24.67;96.03;;
43385;Laerm;28988;48.042;7.584;2023-03-23T04:44:50;84.38;-28.29;95.60;;
43385;Laerm;28988;48.042;7.584;2023-03-23T04:47:19;84.38;-30.98;95.98;;
43385;Laerm;28988;48.042;7.584;2023-03-23T04:49:44;84.38;-23.73;95.40;;
43385;Laerm;28988;48.042;7.584;2023-03-23T04:52:09;84.38;-57.68;95.97;;
43385;Laerm;28988;48.042;7.584;2023-03-23T04:54:35;84.38;-40.49;95.77;;
43385;Laerm;28988;48.042;7.584;2023-03-23T04:57:00;84.38;-57.68;96.19;;
43385;Laerm;28988;48.042;7.584;2023-03-23T04:59:25;84.38;-29.33;95.97;;
43385;Laerm;28988;48.042;7.584;2023-03-23T05:01:52;84.37;-23.73;95.04;;
43385;Laerm;28988;48.042;7.584;2023-03-23T05:04:17;84.36;-57.68;95.42;;
43385;Laerm;28988;48.042;7.584;2023-03-23T05:06:43;84.39;-57.68;95.41;;
43385;Laerm;28988;48.042;7.584;2023-03-23T05:09:10;84.38;-32.36;96.01;;
43385;Laerm;28988;48.042;7.584;2023-03-23T05:11:35;84.36;-34.16;96.05;;
43385;Laerm;28988;48.042;7.584;2023-03-23T05:14:02;84.40;-22.63;95.64;;
43385;Laerm;28988;48.042;7.584;2023-03-23T05:16:27;84.38;-57.68;95.36;;
43385;Laerm;28988;48.042;7.584;2023-03-23T05:18:53;84.39;-57.68;95.51;;
43385;Laerm;28988;48.042;7.584;2023-03-23T05:21:22;84.39;-43.47;95.98;;
43385;Laerm;28988;48.042;7.584;2023-03-23T05:23:47;84.38;-23.68;95.56;;
43385;Laerm;28988;48.042;7.584;2023-03-23T05:26:19;84.38;-28.29;95.42;;
43385;Laerm;28988;48.042;7.584;2023-03-23T05:28:44;84.43;-28.82;95.50;;
43385;Laerm;28988;48.042;7.584;2023-03-23T05:31:10;84.42;-57.68;96.04;;
43385;Laerm;28988;48.042;7.584;2023-03-23T05:33:35;84.41;-39.78;95.41;;
43385;Laerm;28988;48.042;7.584;2023-03-23T05:36:01;84.40;-35.73;95.17;;
43385;Laerm;28988;48.042;7.584;2023-03-23T05:38:27;84.42;-23.73;95.60;;
43385;Laerm;28988;48.042;7.584;2023-03-23T05:40:53;84.45;-39.78;95.74;;
43385;Laerm;28988;48.042;7.584;2023-03-23T05:43:18;84.43;-57.68;95.39;;
43385;Laerm;28988;48.042;7.584;2023-03-23T05:45:43;84.43;-40.14;95.67;;
43385;Laerm;28988;48.042;7.584;2023-03-23T05:48:08;84.44;-57.68;95.89;;
43385;Laerm;28988;48.042;7.584;2023-03-23T05:50:33;84.47;-27.92;95.81;;
43385;Laerm;28988;48.042;7.584;2023-03-23T05:52:59;84.46;-44.30;95.55;;
43385;Laerm;28988;48.042;7.584;2023-03-23T05:55:24;84.46;-31.58;95.97;;
43385;Laerm;28988;48.042;7.584;2023-03-23T05:57:50;84.48;-43.07;96.80;;
43385;Laerm;28988;48.042;7.584;2023-03-23T06:00:15;84.47;-57.68;95.76;;
43385;Laerm;28988;48.042;7.584;2023-03-23T06:02:45;84.46;-33.10;96.17;;
43385;Laerm;28988;48.042;7.584;2023-03-23T06:05:10;84.44;-25.32;95.94;;
43385;Laerm;28988;48.042;7.584;2023-03-23T06:07:36;84.46;-57.68;95.49;;
43385;Laerm;28988;48.042;7.584;2023-03-23T06:10:02;84.45;-57.68;95.80;;
43385;Laerm;28988;48.042;7.584;2023-03-23T06:12:28;84.50;-57.68;95.83;;
43385;Laerm;28988;48.042;7.584;2023-03-23T06:14:53;84.44;-24.47;95.26;;
43385;Laerm;28988;48.042;7.584;2023-03-23T06:17:18;84.45;-60.45;96.04;;
43385;Laerm;28988;48.042;7.584;2023-03-23T06:19:43;84.44;-36.65;96.45;;
43385;Laerm;28988;48.042;7.584;2023-03-23T06:22:10;84.45;-43.17;96.24;;
43385;Laerm;28988;48.042;7.584;2023-03-23T06:24:35;84.47;-30.45;95.65;;
43385;Laerm;28988;48.042;7.584;2023-03-23T06:27:01;84.46;-23.45;97.36;;
43385;Laerm;28988;48.042;7.584;2023-03-23T06:29:26;84.49;-55.02;95.26;;
43385;Laerm;28988;48.042;7.584;2023-03-23T06:31:52;84.50;-39.54;96.38;;
43385;Laerm;28988;48.042;7.584;2023-03-23T06:34:20;84.46;-47.13;95.99;;
43385;Laerm;28988;48.042;7.584;2023-03-23T06:36:45;84.48;-26.67;95.86;;
43385;Laerm;28988;48.042;7.584;2023-03-23T06:39:11;84.52;-30.21;96.08;;
43385;Laerm;28988;48.042;7.584;2023-03-23T06:41:37;84.50;-31.18;96.07;;
43385;Laerm;28988;48.042;7.584;2023-03-23T06:44:02;84.50;-34.80;96.20;;
43385;Laerm;28988;48.042;7.584;2023-03-23T06:46:28;84.50;-25.58;96.08;;
43385;Laerm;28988;48.042;7.584;2023-03-23T06:48:53;84.52;-47.13;95.72;;
43385;Laerm;28988;48.042;7.584;2023-03-23T06:51:19;84.57;-39.78;96.61;;
43385;Laerm;28988;48.042;7.584;2023-03-23T06:53:44;84.61;-43.87;96.25;;
43385;Laerm;28988;48.042;7.584;2023-03-23T06:56:09;84.59;-39.78;95.90;;
43385;Laerm;28988;48.042;7.584;2023-03-23T06:58:36;84.55;-31.34;95.90;;
43385;Laerm;28988;48.042;7.584;2023-03-23T07:01:01;84.69;-41.34;96.27;;
43385;Laerm;28988;48.042;7.584;2023-03-23T07:03:27;84.66;-53.04;96.42;;
43385;Laerm;28988;48.042;7.584;2023-03-23T07:05:52;84.64;-38.64;95.95;;
43385;Laerm;28988;48.042;7.584;2023-03-23T07:08:18;84.64;-54.35;95.93;;
43385;Laerm;28988;48.042;7.584;2023-03-23T07:10:43;84.67;-47.13;96.31;;
43385;Laerm;28988;48.042;7.584;2023-03-23T07:13:08;84.78;-31.58;95.97;;
43385;Laerm;28988;48.042;7.584;2023-03-23T07:15:34;85.20;-47.13;96.51;;
43385;Laerm;28988;48.042;7.584;2023-03-23T07:17:59;85.57;-48.10;97.70;;
43385;Laerm;28988;48.042;7.584;2023-03-23T07:20:24;85.84;-47.13;98.55;;
43385;Laerm;28988;48.042;7.584;2023-03-23T07:22:50;86.20;-48.09;99.45;;
43385;Laerm;28988;48.042;7.584;2023-03-23T07:25:16;86.18;-34.28;98.16;;
43385;Laerm;28988;48.042;7.584;2023-03-23T07:27:43;85.91;-30.89;97.65;;
43385;Laerm;28988;48.042;7.584;2023-03-23T07:30:09;85.84;-45.84;97.52;;
43385;Laerm;28988;48.042;7.584;2023-03-23T07:32:34;85.71;-41.26;97.05;;
43385;Laerm;28988;48.042;7.584;2023-03-23T07:34:59;85.57;-38.65;98.54;;
43385;Laerm;28988;48.042;7.584;2023-03-23T07:37:24;85.28;-62.55;97.41;;
43385;Laerm;28988;48.042;7.584;2023-03-23T07:39:50;85.24;-62.71;96.74;;
43385;Laerm;28988;48.042;7.584;2023-03-23T07:42:15;85.32;-65.19;99.17;;
43385;Laerm;28988;48.042;7.584;2023-03-23T07:44:40;85.66;-36.52;98.73;;
43385;Laerm;28988;48.042;7.584;2023-03-23T07:47:06;86.23;-24.17;99.27;;
43385;Laerm;28988;48.042;7.584;2023-03-23T07:49:31;86.72;-30.20;100.23;;
43385;Laerm;28988;48.042;7.584;2023-03-23T07:51:57;87.47;-30.56;100.93;;
43385;Laerm;28988;48.042;7.584;2023-03-23T07:54:23;87.86;-35.22;100.98;;
43385;Laerm;28988;48.042;7.584;2023-03-23T07:56:48;88.89;-30.26;100.15;;
43385;Laerm;28988;48.042;7.584;2023-03-23T07:59:13;90.29;-34.27;101.95;;
43385;Laerm;28988;48.042;7.584;2023-03-23T08:01:40;90.96;-34.33;101.88;;
43385;Laerm;28988;48.042;7.584;2023-03-23T08:04:05;91.35;-24.84;102.99;;
43385;Laerm;28988;48.042;7.584;2023-03-23T08:06:34;91.43;-25.16;102.05;;
43385;Laerm;28988;48.042;7.584;2023-03-23T08:08:59;91.37;-33.46;104.78;;
43385;Laerm;28988;48.042;7.584;2023-03-23T08:11:25;91.01;-24.30;103.05;;
43385;Laerm;28988;48.042;7.584;2023-03-23T08:13:50;90.64;-21.27;102.55;;
43385;Laerm;28988;48.042;7.584;2023-03-23T08:16:16;89.96;-51.72;101.98;;
43385;Laerm;28988;48.042;7.584;2023-03-23T08:18:41;89.73;-40.69;102.40;;
43385;Laerm;28988;48.042;7.584;2023-03-23T08:21:07;88.84;-22.86;100.42;;
43385;Laerm;28988;48.042;7.584;2023-03-23T08:23:35;88.19;-55.31;101.19;;
43385;Laerm;28988;48.042;7.584;2023-03-23T08:26:04;87.53;-20.87;101.27;;
43385;Laerm;28988;48.042;7.584;2023-03-23T08:28:31;86.81;-44.62;97.71;;
43385;Laerm;28988;48.042;7.584;2023-03-23T08:30:56;86.19;-48.19;98.15;;
43385;Laerm;28988;48.042;7.584;2023-03-23T08:33:22;85.90;-36.67;97.10;;
43385;Laerm;28988;48.042;7.584;2023-03-23T08:35:54;85.48;-47.13;96.78;;
43385;Laerm;28988;48.042;7.584;2023-03-23T08:38:19;85.23;-30.86;95.86;;
43385;Laerm;28988;48.042;7.584;2023-03-23T08:40:46;85.04;-31.26;96.30;;
43385;Laerm;28988;48.042;7.584;2023-03-23T08:43:12;84.90;-47.13;95.97;;
43385;Laerm;28988;48.042;7.584;2023-03-23T08:45:37;84.88;-39.66;96.49;;
43385;Laerm;28988;48.042;7.584;2023-03-23T08:48:02;84.95;-42.30;98.23;;
43385;Laerm;28988;48.042;7.584;2023-03-23T08:50:28;84.70;-33.10;95.96;;
43385;Laerm;28988;48.042;7.584;2023-03-23T08:52:55;84.60;-41.98;96.02;;
43385;Laerm;28988;48.042;7.584;2023-03-23T08:55:21;84.59;-43.91;96.81;;
43385;Laerm;28988;48.042;7.584;2023-03-23T08:57:47;84.62;-48.48;97.16;;
43385;Laerm;28988;48.042;7.584;2023-03-23T09:00:14;84.60;-58.16;95.85;;
43385;Laerm;28988;48.042;7.584;2023-03-23T09:02:44;84.54;-34.46;95.39;;
43385;Laerm;28988;48.042;7.584;2023-03-23T09:05:09;84.53;-65.68;95.95;;
43385;Laerm;28988;48.042;7.584;2023-03-23T09:07:36;84.49;-39.78;95.84;;
43385;Laerm;28988;48.042;7.584;2023-03-23T09:10:02;84.55;-41.26;95.45;;
43385;Laerm;28988;48.042;7.584;2023-03-23T09:12:27;84.53;-34.16;96.28;;
43385;Laerm;28988;48.042;7.584;2023-03-23T09:14:52;84.52;-36.86;95.54;;
43385;Laerm;28988;48.042;7.584;2023-03-23T09:17:18;84.53;-57.68;96.56;;
43385;Laerm;28988;48.042;7.584;2023-03-23T09:19:43;84.55;-52.68;95.81;;
43385;Laerm;28988;48.042;7.584;2023-03-23T09:22:09;84.50;-57.68;96.12;;
43385;Laerm;28988;48.042;7.584;2023-03-23T09:24:34;84.43;-31.14;95.83;;
43385;Laerm;28988;48.042;7.584;2023-03-23T09:26:59;84.47;-28.29;96.37;;
43385;Laerm;28988;48.042;7.584;2023-03-23T09:29:25;84.47;-23.73;95.74;;
43385;Laerm;28988;48.042;7.584;2023-03-23T09:31:51;84.47;-21.74;95.66;;
43385;Laerm;28988;48.042;7.584;2023-03-23T09:34:17;84.43;-23.17;95.43;;
43385;Laerm;28988;48.042;7.584;2023-03-23T09:36:42;84.42;-31.18;95.88;;
43385;Laerm;28988;48.042;7.584;2023-03-23T09:39:08;84.41;-39.78;95.86;;
43385;Laerm;28988;48.042;7.584;2023-03-23T09:44:45;84.34;-57.68;95.21;;
43385;Laerm;28988;48.042;7.584;2023-03-23T09:50:08;84.33;-31.18;95.08;;
43385;Laerm;28988;48.042;7.584;2023-03-23T09:52:41;84.37;-34.92;96.08;;
43385;Laerm;28988;48.042;7.584;2023-03-23T09:55:09;84.34;-23.73;95.42;;
43385;Laerm;28988;48.042;7.584;2023-03-23T09:57:56;84.34;-34.16;95.26;;
43385;Laerm;28988;48.042;7.584;2023-03-23T10:00:24;84.32;-23.73;95.52;;
43385;Laerm;28988;48.042;7.584;2023-03-23T10:02:59;84.34;-57.68;95.47;;
43385;Laerm;28988;48.042;7.584;2023-03-23T10:05:34;84.32;-39.78;95.32;;
43385;Laerm;28988;48.042;7.584;2023-03-23T10:08:01;84.33;-23.73;95.90;;
43385;Laerm;28988;48.042;7.584;2023-03-23T10:11:01;84.32;-23.73;95.14;;
43385;Laerm;28988;48.042;7.584;2023-03-23T10:13:32;84.29;-23.73;95.55;;
43385;Laerm;28988;48.042;7.584;2023-03-23T10:16:01;84.29;-23.73;95.17;;
43385;Laerm;28988;48.042;7.584;2023-03-23T10:19:38;84.32;-28.29;95.06;;
43385;Laerm;28988;48.042;7.584;2023-03-23T10:21:22;84.25;-23.96;95.43;;
43385;Laerm;28988;48.042;7.584;2023-03-23T10:24:23;84.29;-23.73;95.12;;
43385;Laerm;28988;48.042;7.584;2023-03-23T10:29:33;84.25;-40.13;94.82;;
43385;Laerm;28988;48.042;7.584;2023-03-23T10:34:39;84.27;-28.29;94.72;;
43385;Laerm;28988;48.042;7.584;2023-03-23T10:37:16;84.25;-57.68;95.02;;
43385;Laerm;28988;48.042;7.584;2023-03-23T10:39:46;84.26;-28.29;95.23;;
43385;Laerm;28988;48.042;7.584;2023-03-23T10:42:20;84.26;-23.73;95.12;;
43385;Laerm;28988;48.042;7.584;2023-03-23T10:44:46;84.25;-57.68;94.24;;
43385;Laerm;28988;48.042;7.584;2023-03-23T10:47:11;84.26;-22.63;94.48;;
43385;Laerm;28988;48.042;7.584;2023-03-23T10:49:40;84.26;-53.92;94.81;;
43385;Laerm;28988;48.042;7.584;2023-03-23T10:54:32;84.26;-33.10;94.73;;
43385;Laerm;28988;48.042;7.584;2023-03-23T10:57:00;84.24;-23.73;94.31;;
43385;Laerm;28988;48.042;7.584;2023-03-23T10:59:27;84.26;-57.68;94.31;;
43385;Laerm;28988;48.042;7.584;2023-03-23T11:01:54;84.24;-23.73;94.93;;
43385;Laerm;28988;48.042;7.584;2023-03-23T11:04:20;84.24;-34.16;94.57;;
43385;Laerm;28988;48.042;7.584;2023-03-23T11:06:48;84.25;-57.68;94.76;;
43385;Laerm;28988;48.042;7.584;2023-03-23T11:09:18;84.24;-34.16;94.70;;
43385;Laerm;28988;48.042;7.584;2023-03-23T11:11:51;84.23;-33.10;94.57;;
43385;Laerm;28988;48.042;7.584;2023-03-23T11:16:49;84.20;-28.29;94.26;;
43385;Laerm;28988;48.042;7.584;2023-03-23T11:19:15;84.21;-57.68;94.69;;
43385;Laerm;28988;48.042;7.584;2023-03-23T11:21:45;84.21;-57.68;94.00;;
43385;Laerm;28988;48.042;7.584;2023-03-23T11:24:12;84.21;-33.10;93.64;;
43385;Laerm;28988;48.042;7.584;2023-03-23T11:26:37;84.21;-57.68;94.27;;
43385;Laerm;28988;48.042;7.584;2023-03-23T11:29:05;84.21;-34.16;94.93;;
43385;Laerm;28988;48.042;7.584;2023-03-23T11:31:35;84.21;-26.87;94.29;;
43385;Laerm;28988;48.042;7.584;2023-03-23T11:34:02;84.23;-57.68;94.87;;
43385;Laerm;28988;48.042;7.584;2023-03-23T11:36:33;84.22;-23.73;94.55;;
43385;Laerm;28988;48.042;7.584;2023-03-23T11:38:58;84.21;-33.10;94.29;;
43385;Laerm;28988;48.042;7.584;2023-03-23T11:41:31;84.21;-26.55;93.97;;
43385;Laerm;28988;48.042;7.584;2023-03-23T11:43:56;84.22;-28.29;94.13;;
43385;Laerm;28988;48.042;7.584;2023-03-23T11:51:24;84.22;-33.10;93.99;;
43385;Laerm;28988;48.042;7.584;2023-03-23T11:56:38;84.22;-57.68;94.36;;
43385;Laerm;28988;48.042;7.584;2023-03-23T11:59:09;84.22;-23.73;94.31;;
43385;Laerm;28988;48.042;7.584;2023-03-23T12:06:38;84.24;-28.29;95.25;;
43385;Laerm;28988;48.042;7.584;2023-03-23T12:11:51;84.22;-57.68;94.27;;
43385;Laerm;28988;48.042;7.584;2023-03-23T12:19:13;84.24;-31.14;95.13;;
43385;Laerm;28988;48.042;7.584;2023-03-23T12:24:33;84.22;-33.69;94.67;;
43385;Laerm;28988;48.042;7.584;2023-03-23T12:27:18;84.22;-29.79;94.48;;
43385;Laerm;28988;48.042;7.584;2023-03-23T12:29:56;84.22;-23.73;94.84;;
43385;Laerm;28988;48.042;7.584;2023-03-23T12:32:29;84.21;-33.10;94.16;;
43385;Laerm;28988;48.042;7.584;2023-03-23T12:35:04;84.21;-57.68;94.88;;
43385;Laerm;28988;48.042;7.584;2023-03-23T12:40:31;84.21;-28.29;94.16;;
43385;Laerm;28988;48.042;7.584;2023-03-23T12:45:53;84.21;-31.18;93.96;;
43385;Laerm;28988;48.042;7.584;2023-03-23T12:48:22;84.22;-57.68;94.33;;
43385;Laerm;28988;48.042;7.584;2023-03-23T12:53:36;84.21;-34.16;94.31;;
43385;Laerm;28988;48.042;7.584;2023-03-23T12:58:34;84.21;-23.73;94.15;;
43385;Laerm;28988;48.042;7.584;2023-03-23T13:01:03;84.23;-79.25;94.46;;
43385;Laerm;28988;48.042;7.584;2023-03-23T13:03:39;84.22;-36.45;94.43;;
43385;Laerm;28988;48.042;7.584;2023-03-23T13:06:19;84.23;-23.73;94.28;;
43385;Laerm;28988;48.042;7.584;2023-03-23T13:09:01;84.23;-57.68;94.24;;
43385;Laerm;28988;48.042;7.584;2023-03-23T13:11:35;84.23;-57.68;94.56;;
43385;Laerm;28988;48.042;7.584;2023-03-23T13:16:38;84.22;-23.73;94.26;;
43385;Laerm;28988;48.042;7.584;2023-03-23T13:19:10;84.23;-28.29;94.39;;
43385;Laerm;28988;48.042;7.584;2023-03-23T13:24:06;84.26;-23.73;94.95;;
43385;Laerm;28988;48.042;7.584;2023-03-23T13:26:37;84.25;-28.29;94.76;;
43385;Laerm;28988;48.042;7.584;2023-03-23T13:29:14;84.25;-22.63;94.72;;
43385;Laerm;28988;48.042;7.584;2023-03-23T13:31:40;84.25;-44.67;95.27;;
43385;Laerm;28988;48.042;7.584;2023-03-23T13:34:11;84.25;-57.68;94.79;;
43385;Laerm;28988;48.042;7.584;2023-03-23T13:36:53;84.24;-57.68;94.78;;
43385;Laerm;28988;48.042;7.584;2023-03-23T13:41:46;84.24;-23.73;95.20;;
43385;Laerm;28988;48.042;7.584;2023-03-23T13:44:16;84.25;-57.68;94.28;;
43385;Laerm;28988;48.042;7.584;2023-03-23T13:46:42;84.24;-23.73;95.29;;
43385;Laerm;28988;48.042;7.584;2023-03-23T13:49:19;84.24;-57.68;94.52;;
43385;Laerm;28988;48.042;7.584;2023-03-23T13:56:40;84.26;-72.00;94.28;;
43385;Laerm;28988;48.042;7.584;2023-03-23T13:59:16;84.25;-57.68;94.36;;
43385;Laerm;28988;48.042;7.584;2023-03-23T14:01:42;84.23;-20.54;94.15;;
43385;Laerm;28988;48.042;7.584;2023-03-23T14:04:14;84.26;-28.29;94.60;;
43385;Laerm;28988;48.042;7.584;2023-03-23T14:06:40;84.27;-57.68;95.89;;
43385;Laerm;28988;48.042;7.584;2023-03-23T14:09:16;84.26;-57.68;95.11;;
43385;Laerm;28988;48.042;7.584;2023-03-23T14:11:47;84.26;-23.73;95.14;;
43385;Laerm;28988;48.042;7.584;2023-03-23T14:14:27;84.27;-38.85;95.15;;
43385;Laerm;28988;48.042;7.584;2023-03-23T14:17:04;84.25;-23.73;95.27;;
43385;Laerm;28988;48.042;7.584;2023-03-23T14:19:30;84.27;-24.42;95.19;;
43385;Laerm;28988;48.042;7.584;2023-03-23T14:21:56;84.27;-47.59;95.10;;
43385;Laerm;28988;48.042;7.584;2023-03-23T14:24:29;84.27;-31.09;94.93;;
43385;Laerm;28988;48.042;7.584;2023-03-23T14:27:07;84.26;-23.73;95.05;;
43385;Laerm;28988;48.042;7.584;2023-03-23T14:29:33;84.27;-23.73;95.40;;
43385;Laerm;28988;48.042;7.584;2023-03-23T14:31:58;84.27;-33.10;94.88;;
43385;Laerm;28988;48.042;7.584;2023-03-23T14:34:25;84.28;-28.29;95.10;;
43385;Laerm;28988;48.042;7.584;2023-03-23T14:36:51;84.27;-40.01;94.83;;
43385;Laerm;28988;48.042;7.584;2023-03-23T14:39:22;84.28;-28.29;95.49;;
43385;Laerm;28988;48.042;7.584;2023-03-23T14:41:48;84.26;-26.87;94.44;;
43385;Laerm;28988;48.042;7.584;2023-03-23T14:44:15;84.29;-57.68;95.26;;
43385;Laerm;28988;48.042;7.584;2023-03-23T14:46:42;84.26;-23.73;94.99;;
43385;Laerm;28988;48.042;7.584;2023-03-23T14:49:10;84.26;-22.68;95.00;;
43385;Laerm;28988;48.042;7.584;2023-03-23T14:51:36;84.27;-57.68;94.67;;
43385;Laerm;28988;48.042;7.584;2023-03-23T14:54:06;84.26;-23.73;94.60;;
43385;Laerm;28988;48.042;7.584;2023-03-23T14:56:33;84.27;-57.68;94.67;;
43385;Laerm;28988;48.042;7.584;2023-03-23T14:59:02;84.27;-26.87;95.01;;